sensor_id;sensor_type;location;lat;lon;timestamp;P1;durP1;ratioP1;P2;durP2;ratioP2
64816;SDS011;69411;45.656;11.740;2023-07-09T00:01:13;12.73;;;5.88;;
64816;SDS011;69411;45.656;11.740;2023-07-09T00:03:45;9.70;;;5.30;;
64816;SDS011;69411;45.656;11.740;2023-07-09T00:06:17;11.07;;;5.85;;
64816;SDS011;69411;45.656;11.740;2023-07-09T00:08:44;9.75;;;6.03;;
64816;SDS011;69411;45.656;11.740;2023-07-09T00:11:13;9.68;;;5.18;;
64816;SDS011;69411;45.656;11.740;2023-07-09T00:13:42;8.45;;;5.53;;
64816;SDS011;69411;45.656;11.740;2023-07-09T00:16:12;9.40;;;5.18;;
64816;SDS011;69411;45.656;11.740;2023-07-09T00:18:43;8.60;;;5.15;;
64816;SDS011;69411;45.656;11.740;2023-07-09T00:21:10;8.90;;;5.15;;
64816;SDS011;69411;45.656;11.740;2023-07-09T00:23:35;10.15;;;5.13;;
64816;SDS011;69411;45.656;11.740;2023-07-09T00:26:07;8.13;;;5.22;;
64816;SDS011;69411;45.656;11.740;2023-07-09T00:28:39;12.10;;;6.25;;
64816;SDS011;69411;45.656;11.740;2023-07-09T00:31:08;10.27;;;6.18;;
64816;SDS011;69411;45.656;11.740;2023-07-09T00:33:40;8.73;;;4.97;;
64816;SDS011;69411;45.656;11.740;2023-07-09T00:36:49;11.00;;;5.95;;
64816;SDS011;69411;45.656;11.740;2023-07-09T00:38:59;12.20;;;5.95;;
64816;SDS011;69411;45.656;11.740;2023-07-09T00:41:34;11.20;;;6.13;;
64816;SDS011;69411;45.656;11.740;2023-07-09T00:49:24;10.88;;;6.07;;
64816;SDS011;69411;45.656;11.740;2023-07-09T00:51:55;10.15;;;5.57;;
64816;SDS011;69411;45.656;11.740;2023-07-09T00:54:28;8.88;;;4.88;;
64816;SDS011;69411;45.656;11.740;2023-07-09T00:57:12;9.73;;;5.35;;
64816;SDS011;69411;45.656;11.740;2023-07-09T00:59:47;8.80;;;5.53;;
64816;SDS011;69411;45.656;11.740;2023-07-09T01:02:17;8.98;;;5.45;;
64816;SDS011;69411;45.656;11.740;2023-07-09T01:04:48;8.55;;;5.55;;
64816;SDS011;69411;45.656;11.740;2023-07-09T01:07:16;8.95;;;5.70;;
64816;SDS011;69411;45.656;11.740;2023-07-09T01:09:42;9.18;;;5.38;;
64816;SDS011;69411;45.656;11.740;2023-07-09T01:12:09;11.32;;;5.65;;
64816;SDS011;69411;45.656;11.740;2023-07-09T01:14:35;8.55;;;5.25;;
64816;SDS011;69411;45.656;11.740;2023-07-09T01:17:04;8.65;;;5.50;;
64816;SDS011;69411;45.656;11.740;2023-07-09T01:19:36;9.63;;;5.25;;
64816;SDS011;69411;45.656;11.740;2023-07-09T01:22:08;8.38;;;5.50;;
64816;SDS011;69411;45.656;11.740;2023-07-09T01:27:25;8.90;;;5.72;;
64816;SDS011;69411;45.656;11.740;2023-07-09T01:29:54;10.18;;;5.80;;
64816;SDS011;69411;45.656;11.740;2023-07-09T01:32:21;10.05;;;6.18;;
64816;SDS011;69411;45.656;11.740;2023-07-09T01:34:48;8.65;;;5.10;;
64816;SDS011;69411;45.656;11.740;2023-07-09T01:37:37;8.25;;;5.05;;
64816;SDS011;69411;45.656;11.740;2023-07-09T01:40:04;9.20;;;5.53;;
64816;SDS011;69411;45.656;11.740;2023-07-09T01:42:31;9.40;;;5.47;;
64816;SDS011;69411;45.656;11.740;2023-07-09T01:44:58;8.60;;;5.25;;
64816;SDS011;69411;45.656;11.740;2023-07-09T01:47:24;11.32;;;5.20;;
64816;SDS011;69411;45.656;11.740;2023-07-09T01:49:50;8.27;;;5.25;;
64816;SDS011;69411;45.656;11.740;2023-07-09T01:52:22;8.40;;;5.00;;
64816;SDS011;69411;45.656;11.740;2023-07-09T01:54:50;8.55;;;4.90;;
64816;SDS011;69411;45.656;11.740;2023-07-09T01:57:19;8.30;;;4.78;;
64816;SDS011;69411;45.656;11.740;2023-07-09T01:59:50;8.90;;;5.40;;
64816;SDS011;69411;45.656;11.740;2023-07-09T02:02:17;9.45;;;5.68;;
64816;SDS011;69411;45.656;11.740;2023-07-09T02:04:48;8.48;;;5.20;;
64816;SDS011;69411;45.656;11.740;2023-07-09T02:07:16;9.02;;;5.53;;
64816;SDS011;69411;45.656;11.740;2023-07-09T02:09:43;8.52;;;5.35;;
64816;SDS011;69411;45.656;11.740;2023-07-09T02:12:09;10.30;;;5.68;;
64816;SDS011;69411;45.656;11.740;2023-07-09T02:14:36;7.82;;;5.60;;
64816;SDS011;69411;45.656;11.740;2023-07-09T02:17:02;8.00;;;5.32;;
64816;SDS011;69411;45.656;11.740;2023-07-09T02:19:28;8.93;;;5.70;;
64816;SDS011;69411;45.656;11.740;2023-07-09T02:21:55;10.05;;;5.72;;
64816;SDS011;69411;45.656;11.740;2023-07-09T02:24:21;8.80;;;5.50;;
64816;SDS011;69411;45.656;11.740;2023-07-09T02:26:56;9.63;;;5.57;;
64816;SDS011;69411;45.656;11.740;2023-07-09T02:29:24;8.38;;;5.55;;
64816;SDS011;69411;45.656;11.740;2023-07-09T02:31:51;8.88;;;5.63;;
64816;SDS011;69411;45.656;11.740;2023-07-09T02:34:18;9.35;;;5.40;;
64816;SDS011;69411;45.656;11.740;2023-07-09T02:36:44;9.25;;;5.80;;
64816;SDS011;69411;45.656;11.740;2023-07-09T02:39:13;9.43;;;6.07;;
64816;SDS011;69411;45.656;11.740;2023-07-09T02:41:39;9.30;;;5.90;;
64816;SDS011;69411;45.656;11.740;2023-07-09T02:44:06;7.80;;;5.45;;
64816;SDS011;69411;45.656;11.740;2023-07-09T02:46:33;8.90;;;6.10;;
64816;SDS011;69411;45.656;11.740;2023-07-09T02:48:59;10.77;;;6.00;;
64816;SDS011;69411;45.656;11.740;2023-07-09T02:51:28;10.40;;;5.93;;
64816;SDS011;69411;45.656;11.740;2023-07-09T02:53:55;12.88;;;6.30;;
64816;SDS011;69411;45.656;11.740;2023-07-09T02:56:22;10.75;;;6.38;;
64816;SDS011;69411;45.656;11.740;2023-07-09T02:58:49;9.75;;;5.70;;
64816;SDS011;69411;45.656;11.740;2023-07-09T03:01:16;8.65;;;5.30;;
64816;SDS011;69411;45.656;11.740;2023-07-09T03:03:43;9.77;;;6.10;;
64816;SDS011;69411;45.656;11.740;2023-07-09T03:06:09;10.25;;;6.07;;
64816;SDS011;69411;45.656;11.740;2023-07-09T03:08:35;10.45;;;5.68;;
64816;SDS011;69411;45.656;11.740;2023-07-09T03:11:10;9.35;;;6.05;;
64816;SDS011;69411;45.656;11.740;2023-07-09T03:13:37;9.85;;;5.47;;
64816;SDS011;69411;45.656;11.740;2023-07-09T03:16:04;9.05;;;5.55;;
64816;SDS011;69411;45.656;11.740;2023-07-09T03:18:30;10.75;;;6.13;;
64816;SDS011;69411;45.656;11.740;2023-07-09T03:20:57;10.10;;;6.07;;
64816;SDS011;69411;45.656;11.740;2023-07-09T03:23:24;9.40;;;5.97;;
64816;SDS011;69411;45.656;11.740;2023-07-09T03:25:50;11.07;;;6.20;;
64816;SDS011;69411;45.656;11.740;2023-07-09T03:28:16;10.27;;;7.15;;
64816;SDS011;69411;45.656;11.740;2023-07-09T03:30:43;9.30;;;5.85;;
64816;SDS011;69411;45.656;11.740;2023-07-09T03:33:11;8.40;;;5.70;;
64816;SDS011;69411;45.656;11.740;2023-07-09T03:35:39;9.70;;;6.18;;
64816;SDS011;69411;45.656;11.740;2023-07-09T03:38:05;10.10;;;6.13;;
64816;SDS011;69411;45.656;11.740;2023-07-09T03:40:32;11.35;;;6.22;;
64816;SDS011;69411;45.656;11.740;2023-07-09T03:42:59;9.63;;;5.55;;
64816;SDS011;69411;45.656;11.740;2023-07-09T03:45:25;11.23;;;6.15;;
64816;SDS011;69411;45.656;11.740;2023-07-09T03:47:51;12.25;;;6.63;;
64816;SDS011;69411;45.656;11.740;2023-07-09T03:50:18;11.43;;;6.05;;
64816;SDS011;69411;45.656;11.740;2023-07-09T03:52:44;10.45;;;5.97;;
64816;SDS011;69411;45.656;11.740;2023-07-09T03:55:10;10.30;;;6.30;;
64816;SDS011;69411;45.656;11.740;2023-07-09T03:57:36;9.20;;;6.05;;
64816;SDS011;69411;45.656;11.740;2023-07-09T04:00:02;10.38;;;6.10;;
64816;SDS011;69411;45.656;11.740;2023-07-09T04:02:30;11.18;;;6.45;;
64816;SDS011;69411;45.656;11.740;2023-07-09T04:04:57;12.38;;;6.65;;
64816;SDS011;69411;45.656;11.740;2023-07-09T04:07:27;12.88;;;7.43;;
64816;SDS011;69411;45.656;11.740;2023-07-09T04:09:53;10.07;;;6.40;;
64816;SDS011;69411;45.656;11.740;2023-07-09T04:12:19;9.98;;;6.50;;
64816;SDS011;69411;45.656;11.740;2023-07-09T04:14:45;10.10;;;6.55;;
64816;SDS011;69411;45.656;11.740;2023-07-09T04:17:11;10.20;;;6.65;;
64816;SDS011;69411;45.656;11.740;2023-07-09T04:19:37;10.13;;;7.05;;
64816;SDS011;69411;45.656;11.740;2023-07-09T04:22:04;10.75;;;7.03;;
64816;SDS011;69411;45.656;11.740;2023-07-09T04:24:30;10.20;;;6.70;;
64816;SDS011;69411;45.656;11.740;2023-07-09T04:26:58;11.57;;;7.28;;
64816;SDS011;69411;45.656;11.740;2023-07-09T04:29:31;10.88;;;7.40;;
64816;SDS011;69411;45.656;11.740;2023-07-09T04:32:01;15.30;;;9.07;;
64816;SDS011;69411;45.656;11.740;2023-07-09T04:34:28;12.93;;;9.27;;
64816;SDS011;69411;45.656;11.740;2023-07-09T04:36:54;13.25;;;9.00;;
64816;SDS011;69411;45.656;11.740;2023-07-09T04:39:20;12.57;;;7.10;;
64816;SDS011;69411;45.656;11.740;2023-07-09T04:41:46;13.15;;;7.78;;
64816;SDS011;69411;45.656;11.740;2023-07-09T04:44:12;11.05;;;6.93;;
64816;SDS011;69411;45.656;11.740;2023-07-09T04:46:38;11.68;;;6.93;;
64816;SDS011;69411;45.656;11.740;2023-07-09T04:49:04;13.07;;;7.47;;
64816;SDS011;69411;45.656;11.740;2023-07-09T04:51:30;12.20;;;7.65;;
64816;SDS011;69411;45.656;11.740;2023-07-09T04:53:57;16.05;;;7.35;;
64816;SDS011;69411;45.656;11.740;2023-07-09T04:56:22;11.68;;;7.50;;
64816;SDS011;69411;45.656;11.740;2023-07-09T04:58:49;12.65;;;7.68;;
64816;SDS011;69411;45.656;11.740;2023-07-09T05:01:14;17.77;;;7.28;;
64816;SDS011;69411;45.656;11.740;2023-07-09T05:03:40;13.90;;;7.40;;
64816;SDS011;69411;45.656;11.740;2023-07-09T05:06:06;12.20;;;6.85;;
64816;SDS011;69411;45.656;11.740;2023-07-09T05:08:32;11.88;;;6.60;;
64816;SDS011;69411;45.656;11.740;2023-07-09T05:10:58;14.95;;;6.90;;
64816;SDS011;69411;45.656;11.740;2023-07-09T05:13:24;10.65;;;5.93;;
64816;SDS011;69411;45.656;11.740;2023-07-09T05:15:51;11.88;;;5.38;;
64816;SDS011;69411;45.656;11.740;2023-07-09T05:18:17;11.63;;;5.80;;
64816;SDS011;69411;45.656;11.740;2023-07-09T05:20:45;11.82;;;5.18;;
64816;SDS011;69411;45.656;11.740;2023-07-09T05:23:12;9.32;;;4.97;;
64816;SDS011;69411;45.656;11.740;2023-07-09T05:25:38;9.27;;;4.88;;
64816;SDS011;69411;45.656;11.740;2023-07-09T05:28:05;9.60;;;5.18;;
64816;SDS011;69411;45.656;11.740;2023-07-09T05:30:31;9.30;;;5.25;;
64816;SDS011;69411;45.656;11.740;2023-07-09T05:32:58;6.97;;;4.90;;
64816;SDS011;69411;45.656;11.740;2023-07-09T05:35:25;8.65;;;5.35;;
64816;SDS011;69411;45.656;11.740;2023-07-09T05:37:54;11.25;;;6.50;;
64816;SDS011;69411;45.656;11.740;2023-07-09T05:40:21;7.03;;;5.05;;
64816;SDS011;69411;45.656;11.740;2023-07-09T05:42:50;10.27;;;6.75;;
64816;SDS011;69411;45.656;11.740;2023-07-09T05:45:16;8.88;;;6.20;;
64816;SDS011;69411;45.656;11.740;2023-07-09T05:47:42;10.55;;;6.60;;
64816;SDS011;69411;45.656;11.740;2023-07-09T05:50:08;9.85;;;6.20;;
64816;SDS011;69411;45.656;11.740;2023-07-09T05:52:34;8.70;;;5.53;;
64816;SDS011;69411;45.656;11.740;2023-07-09T05:55:00;9.32;;;5.60;;
64816;SDS011;69411;45.656;11.740;2023-07-09T05:57:26;7.85;;;4.95;;
64816;SDS011;69411;45.656;11.740;2023-07-09T05:59:52;10.25;;;6.00;;
64816;SDS011;69411;45.656;11.740;2023-07-09T06:02:19;9.93;;;5.53;;
64816;SDS011;69411;45.656;11.740;2023-07-09T06:04:47;8.50;;;5.40;;
64816;SDS011;69411;45.656;11.740;2023-07-09T06:07:16;7.80;;;5.45;;
64816;SDS011;69411;45.656;11.740;2023-07-09T06:09:43;7.93;;;5.47;;
64816;SDS011;69411;45.656;11.740;2023-07-09T06:12:11;8.75;;;5.80;;
64816;SDS011;69411;45.656;11.740;2023-07-09T06:14:37;9.85;;;6.03;;
64816;SDS011;69411;45.656;11.740;2023-07-09T06:17:03;9.52;;;5.82;;
64816;SDS011;69411;45.656;11.740;2023-07-09T06:19:29;10.50;;;5.43;;
64816;SDS011;69411;45.656;11.740;2023-07-09T06:21:55;8.18;;;5.50;;
64816;SDS011;69411;45.656;11.740;2023-07-09T06:24:21;11.88;;;6.38;;
64816;SDS011;69411;45.656;11.740;2023-07-09T06:26:48;10.02;;;6.45;;
64816;SDS011;69411;45.656;11.740;2023-07-09T06:29:14;8.68;;;6.20;;
64816;SDS011;69411;45.656;11.740;2023-07-09T06:31:40;8.80;;;6.35;;
64816;SDS011;69411;45.656;11.740;2023-07-09T06:34:08;7.85;;;5.63;;
64816;SDS011;69411;45.656;11.740;2023-07-09T06:36:34;8.57;;;5.57;;
64816;SDS011;69411;45.656;11.740;2023-07-09T06:39:01;7.97;;;5.82;;
64816;SDS011;69411;45.656;11.740;2023-07-09T06:41:28;8.88;;;6.40;;
64816;SDS011;69411;45.656;11.740;2023-07-09T06:43:54;8.70;;;5.85;;
64816;SDS011;69411;45.656;11.740;2023-07-09T06:46:20;10.30;;;6.03;;
64816;SDS011;69411;45.656;11.740;2023-07-09T06:48:46;9.88;;;6.20;;
64816;SDS011;69411;45.656;11.740;2023-07-09T06:51:12;10.30;;;6.18;;
64816;SDS011;69411;45.656;11.740;2023-07-09T06:53:39;10.40;;;6.78;;
64816;SDS011;69411;45.656;11.740;2023-07-09T06:56:05;9.75;;;6.70;;
64816;SDS011;69411;45.656;11.740;2023-07-09T06:58:31;10.77;;;6.93;;
64816;SDS011;69411;45.656;11.740;2023-07-09T07:01:02;12.40;;;7.45;;
64816;SDS011;69411;45.656;11.740;2023-07-09T07:03:29;9.35;;;6.28;;
64816;SDS011;69411;45.656;11.740;2023-07-09T07:05:57;10.15;;;6.93;;
64816;SDS011;69411;45.656;11.740;2023-07-09T07:08:24;11.15;;;6.50;;
64816;SDS011;69411;45.656;11.740;2023-07-09T07:10:54;10.70;;;6.07;;
64816;SDS011;69411;45.656;11.740;2023-07-09T07:13:31;9.13;;;6.10;;
64816;SDS011;69411;45.656;11.740;2023-07-09T07:16:00;11.52;;;7.10;;
64816;SDS011;69411;45.656;11.740;2023-07-09T07:18:28;10.35;;;6.70;;
64816;SDS011;69411;45.656;11.740;2023-07-09T07:20:54;8.80;;;6.68;;
64816;SDS011;69411;45.656;11.740;2023-07-09T07:23:20;9.60;;;6.75;;
64816;SDS011;69411;45.656;11.740;2023-07-09T07:25:48;10.52;;;6.40;;
64816;SDS011;69411;45.656;11.740;2023-07-09T07:28:14;9.90;;;6.57;;
64816;SDS011;69411;45.656;11.740;2023-07-09T07:30:41;11.02;;;6.38;;
64816;SDS011;69411;45.656;11.740;2023-07-09T07:33:08;9.57;;;6.28;;
64816;SDS011;69411;45.656;11.740;2023-07-09T07:35:34;9.57;;;6.30;;
64816;SDS011;69411;45.656;11.740;2023-07-09T07:38:03;10.27;;;7.10;;
64816;SDS011;69411;45.656;11.740;2023-07-09T07:40:30;11.27;;;7.25;;
64816;SDS011;69411;45.656;11.740;2023-07-09T07:42:57;10.55;;;6.40;;
64816;SDS011;69411;45.656;11.740;2023-07-09T07:45:23;10.38;;;7.15;;
64816;SDS011;69411;45.656;11.740;2023-07-09T07:47:54;10.35;;;6.50;;
64816;SDS011;69411;45.656;11.740;2023-07-09T07:50:20;10.07;;;6.68;;
64816;SDS011;69411;45.656;11.740;2023-07-09T07:52:49;9.38;;;6.40;;
64816;SDS011;69411;45.656;11.740;2023-07-09T07:55:15;9.80;;;6.75;;
64816;SDS011;69411;45.656;11.740;2023-07-09T07:57:41;10.43;;;6.32;;
64816;SDS011;69411;45.656;11.740;2023-07-09T08:00:08;8.73;;;6.15;;
64816;SDS011;69411;45.656;11.740;2023-07-09T08:02:34;11.93;;;6.55;;
64816;SDS011;69411;45.656;11.740;2023-07-09T08:05:00;12.50;;;7.03;;
64816;SDS011;69411;45.656;11.740;2023-07-09T08:07:26;8.93;;;5.97;;
64816;SDS011;69411;45.656;11.740;2023-07-09T08:09:52;10.57;;;6.35;;
64816;SDS011;69411;45.656;11.740;2023-07-09T08:12:18;10.55;;;6.60;;
64816;SDS011;69411;45.656;11.740;2023-07-09T08:14:44;8.48;;;5.93;;
64816;SDS011;69411;45.656;11.740;2023-07-09T08:17:11;10.68;;;5.90;;
64816;SDS011;69411;45.656;11.740;2023-07-09T08:19:47;10.25;;;6.20;;
64816;SDS011;69411;45.656;11.740;2023-07-09T08:22:15;9.40;;;5.72;;
64816;SDS011;69411;45.656;11.740;2023-07-09T08:24:41;12.30;;;6.53;;
64816;SDS011;69411;45.656;11.740;2023-07-09T08:27:08;8.30;;;6.10;;
64816;SDS011;69411;45.656;11.740;2023-07-09T08:29:34;10.48;;;7.07;;
64816;SDS011;69411;45.656;11.740;2023-07-09T08:32:01;10.45;;;6.63;;
64816;SDS011;69411;45.656;11.740;2023-07-09T08:34:28;10.18;;;5.95;;
64816;SDS011;69411;45.656;11.740;2023-07-09T08:36:54;9.57;;;6.30;;
64816;SDS011;69411;45.656;11.740;2023-07-09T08:39:20;9.43;;;5.93;;
64816;SDS011;69411;45.656;11.740;2023-07-09T08:41:54;10.65;;;7.10;;
64816;SDS011;69411;45.656;11.740;2023-07-09T08:44:44;8.70;;;6.03;;
64816;SDS011;69411;45.656;11.740;2023-07-09T08:50:38;11.68;;;6.72;;
64816;SDS011;69411;45.656;11.740;2023-07-09T08:53:53;12.98;;;6.25;;
64816;SDS011;69411;45.656;11.740;2023-07-09T08:56:04;9.40;;;6.32;;
64816;SDS011;69411;45.656;11.740;2023-07-09T08:58:39;10.57;;;6.10;;
64816;SDS011;69411;45.656;11.740;2023-07-09T09:01:11;11.98;;;7.05;;
64816;SDS011;69411;45.656;11.740;2023-07-09T09:04:00;11.03;;;7.83;;
64816;SDS011;69411;45.656;11.740;2023-07-09T09:06:47;10.77;;;6.63;;
64816;SDS011;69411;45.656;11.740;2023-07-09T09:09:28;9.77;;;6.70;;
64816;SDS011;69411;45.656;11.740;2023-07-09T09:14:39;10.32;;;6.30;;
64816;SDS011;69411;45.656;11.740;2023-07-09T09:17:13;9.93;;;6.72;;
64816;SDS011;69411;45.656;11.740;2023-07-09T09:19:52;9.63;;;6.03;;
64816;SDS011;69411;45.656;11.740;2023-07-09T09:22:24;9.93;;;6.05;;
64816;SDS011;69411;45.656;11.740;2023-07-09T09:25:15;11.52;;;5.93;;
64816;SDS011;69411;45.656;11.740;2023-07-09T09:27:52;10.48;;;6.85;;
64816;SDS011;69411;45.656;11.740;2023-07-09T09:30:20;11.98;;;6.45;;
64816;SDS011;69411;45.656;11.740;2023-07-09T09:32:50;10.27;;;6.03;;
64816;SDS011;69411;45.656;11.740;2023-07-09T09:35:24;10.98;;;6.43;;
64816;SDS011;69411;45.656;11.740;2023-07-09T09:37:59;9.50;;;6.80;;
64816;SDS011;69411;45.656;11.740;2023-07-09T09:40:27;8.93;;;5.88;;
64816;SDS011;69411;45.656;11.740;2023-07-09T09:42:57;9.95;;;6.32;;
64816;SDS011;69411;45.656;11.740;2023-07-09T09:45:26;14.50;;;6.78;;
64816;SDS011;69411;45.656;11.740;2023-07-09T09:48:14;9.52;;;6.30;;
64816;SDS011;69411;45.656;11.740;2023-07-09T09:50:45;8.98;;;5.90;;
64816;SDS011;69411;45.656;11.740;2023-07-09T09:53:19;8.45;;;5.78;;
64816;SDS011;69411;45.656;11.740;2023-07-09T09:55:47;9.23;;;5.88;;
64816;SDS011;69411;45.656;11.740;2023-07-09T09:58:15;9.07;;;5.88;;
64816;SDS011;69411;45.656;11.740;2023-07-09T10:00:49;10.25;;;6.63;;
64816;SDS011;69411;45.656;11.740;2023-07-09T10:03:17;9.20;;;6.10;;
64816;SDS011;69411;45.656;11.740;2023-07-09T10:05:44;9.65;;;6.32;;
64816;SDS011;69411;45.656;11.740;2023-07-09T10:16:44;8.15;;;6.20;;
64816;SDS011;69411;45.656;11.740;2023-07-09T10:19:19;10.25;;;6.25;;
64816;SDS011;69411;45.656;11.740;2023-07-09T10:21:57;9.67;;;6.43;;
64816;SDS011;69411;45.656;11.740;2023-07-09T10:24:57;9.52;;;6.00;;
64816;SDS011;69411;45.656;11.740;2023-07-09T10:28:16;9.40;;;6.32;;
64816;SDS011;69411;45.656;11.740;2023-07-09T10:37:16;11.60;;;7.25;;
64816;SDS011;69411;45.656;11.740;2023-07-09T10:39:26;11.13;;;6.22;;
64816;SDS011;69411;45.656;11.740;2023-07-09T10:42:43;9.13;;;5.85;;
64816;SDS011;69411;45.656;11.740;2023-07-09T10:45:15;9.00;;;5.88;;
64816;SDS011;69411;45.656;11.740;2023-07-09T10:47:48;10.15;;;5.95;;
64816;SDS011;69411;45.656;11.740;2023-07-09T10:50:28;11.85;;;6.35;;
64816;SDS011;69411;45.656;11.740;2023-07-09T10:53:02;9.05;;;6.07;;
64816;SDS011;69411;45.656;11.740;2023-07-09T10:55:53;10.02;;;6.13;;
64816;SDS011;69411;45.656;11.740;2023-07-09T11:00:53;8.68;;;5.75;;
64816;SDS011;69411;45.656;11.740;2023-07-09T11:03:21;8.73;;;5.68;;
64816;SDS011;69411;45.656;11.740;2023-07-09T11:05:52;8.48;;;6.15;;
64816;SDS011;69411;45.656;11.740;2023-07-09T11:08:24;10.25;;;6.10;;
64816;SDS011;69411;45.656;11.740;2023-07-09T11:11:04;8.82;;;6.00;;
64816;SDS011;69411;45.656;11.740;2023-07-09T11:16:07;8.85;;;5.38;;
64816;SDS011;69411;45.656;11.740;2023-07-09T11:18:37;8.90;;;5.85;;
64816;SDS011;69411;45.656;11.740;2023-07-09T11:21:07;9.98;;;6.03;;
64816;SDS011;69411;45.656;11.740;2023-07-09T11:23:47;9.13;;;5.85;;
64816;SDS011;69411;45.656;11.740;2023-07-09T11:26:23;9.52;;;6.00;;
64816;SDS011;69411;45.656;11.740;2023-07-09T11:28:51;10.00;;;6.65;;
64816;SDS011;69411;45.656;11.740;2023-07-09T11:31:38;8.40;;;6.03;;
64816;SDS011;69411;45.656;11.740;2023-07-09T11:34:27;9.77;;;6.25;;
64816;SDS011;69411;45.656;11.740;2023-07-09T11:42:01;8.45;;;5.53;;
64816;SDS011;69411;45.656;11.740;2023-07-09T11:44:29;7.20;;;5.35;;
64816;SDS011;69411;45.656;11.740;2023-07-09T11:50:00;10.40;;;6.55;;
64816;SDS011;69411;45.656;11.740;2023-07-09T11:52:39;7.88;;;5.40;;
64816;SDS011;69411;45.656;11.740;2023-07-09T11:55:31;8.18;;;6.03;;
64816;SDS011;69411;45.656;11.740;2023-07-09T11:58:02;10.45;;;6.18;;
64816;SDS011;69411;45.656;11.740;2023-07-09T12:01:02;11.27;;;5.30;;
64816;SDS011;69411;45.656;11.740;2023-07-09T12:03:25;8.57;;;5.30;;
64816;SDS011;69411;45.656;11.740;2023-07-09T12:05:55;9.95;;;5.97;;
64816;SDS011;69411;45.656;11.740;2023-07-09T12:08:30;9.95;;;5.45;;
64816;SDS011;69411;45.656;11.740;2023-07-09T12:10:59;9.48;;;5.90;;
64816;SDS011;69411;45.656;11.740;2023-07-09T12:13:25;8.27;;;5.20;;
64816;SDS011;69411;45.656;11.740;2023-07-09T12:15:51;8.32;;;5.88;;
64816;SDS011;69411;45.656;11.740;2023-07-09T12:18:18;9.52;;;5.72;;
64816;SDS011;69411;45.656;11.740;2023-07-09T12:20:51;9.48;;;5.82;;
64816;SDS011;69411;45.656;11.740;2023-07-09T12:23:28;8.57;;;5.75;;
64816;SDS011;69411;45.656;11.740;2023-07-09T12:25:59;10.63;;;5.70;;
64816;SDS011;69411;45.656;11.740;2023-07-09T12:28:26;7.88;;;5.53;;
64816;SDS011;69411;45.656;11.740;2023-07-09T12:30:53;8.68;;;5.63;;
64816;SDS011;69411;45.656;11.740;2023-07-09T12:33:21;10.00;;;6.13;;
64816;SDS011;69411;45.656;11.740;2023-07-09T12:35:57;8.80;;;6.15;;
64816;SDS011;69411;45.656;11.740;2023-07-09T12:38:27;9.95;;;6.00;;
64816;SDS011;69411;45.656;11.740;2023-07-09T12:40:55;9.48;;;6.20;;
64816;SDS011;69411;45.656;11.740;2023-07-09T12:43:26;9.43;;;6.30;;
64816;SDS011;69411;45.656;11.740;2023-07-09T12:45:54;8.80;;;5.80;;
64816;SDS011;69411;45.656;11.740;2023-07-09T12:48:28;7.63;;;5.22;;
64816;SDS011;69411;45.656;11.740;2023-07-09T12:50:58;9.80;;;6.10;;
64816;SDS011;69411;45.656;11.740;2023-07-09T12:53:26;9.40;;;6.15;;
64816;SDS011;69411;45.656;11.740;2023-07-09T12:55:57;8.50;;;5.80;;
64816;SDS011;69411;45.656;11.740;2023-07-09T12:58:27;8.87;;;5.87;;
64816;SDS011;69411;45.656;11.740;2023-07-09T13:00:56;9.98;;;6.30;;
64816;SDS011;69411;45.656;11.740;2023-07-09T13:03:27;9.10;;;5.80;;
64816;SDS011;69411;45.656;11.740;2023-07-09T13:06:02;11.25;;;6.32;;
64816;SDS011;69411;45.656;11.740;2023-07-09T13:08:39;11.38;;;6.30;;
64816;SDS011;69411;45.656;11.740;2023-07-09T13:11:16;7.65;;;5.35;;
64816;SDS011;69411;45.656;11.740;2023-07-09T13:13:56;10.45;;;6.47;;
64816;SDS011;69411;45.656;11.740;2023-07-09T13:16:23;10.18;;;6.15;;
64816;SDS011;69411;45.656;11.740;2023-07-09T13:18:50;9.20;;;5.55;;
64816;SDS011;69411;45.656;11.740;2023-07-09T13:21:17;9.10;;;5.75;;
64816;SDS011;69411;45.656;11.740;2023-07-09T13:23:44;10.00;;;6.63;;
64816;SDS011;69411;45.656;11.740;2023-07-09T13:26:12;8.85;;;5.90;;
64816;SDS011;69411;45.656;11.740;2023-07-09T13:28:39;9.35;;;5.60;;
64816;SDS011;69411;45.656;11.740;2023-07-09T13:31:15;8.75;;;5.82;;
64816;SDS011;69411;45.656;11.740;2023-07-09T13:33:43;8.00;;;5.68;;
64816;SDS011;69411;45.656;11.740;2023-07-09T13:36:16;10.65;;;5.88;;
64816;SDS011;69411;45.656;11.740;2023-07-09T13:38:42;7.82;;;5.13;;
64816;SDS011;69411;45.656;11.740;2023-07-09T13:41:11;8.13;;;5.50;;
64816;SDS011;69411;45.656;11.740;2023-07-09T13:43:41;9.25;;;5.97;;
64816;SDS011;69411;45.656;11.740;2023-07-09T13:46:09;10.00;;;5.90;;
64816;SDS011;69411;45.656;11.740;2023-07-09T13:48:36;8.63;;;5.22;;
64816;SDS011;69411;45.656;11.740;2023-07-09T13:51:14;8.65;;;5.60;;
64816;SDS011;69411;45.656;11.740;2023-07-09T13:53:45;9.68;;;6.05;;
64816;SDS011;69411;45.656;11.740;2023-07-09T13:56:12;9.70;;;6.00;;
64816;SDS011;69411;45.656;11.740;2023-07-09T13:58:38;10.00;;;6.28;;
64816;SDS011;69411;45.656;11.740;2023-07-09T14:01:12;10.35;;;5.50;;
64816;SDS011;69411;45.656;11.740;2023-07-09T14:03:41;9.43;;;5.72;;
64816;SDS011;69411;45.656;11.740;2023-07-09T14:06:09;8.90;;;5.80;;
64816;SDS011;69411;45.656;11.740;2023-07-09T14:08:38;9.40;;;6.18;;
64816;SDS011;69411;45.656;11.740;2023-07-09T14:11:14;9.27;;;5.60;;
64816;SDS011;69411;45.656;11.740;2023-07-09T14:13:42;9.38;;;5.55;;
64816;SDS011;69411;45.656;11.740;2023-07-09T14:16:11;8.05;;;5.50;;
64816;SDS011;69411;45.656;11.740;2023-07-09T14:18:38;10.00;;;5.80;;
64816;SDS011;69411;45.656;11.740;2023-07-09T14:21:11;11.45;;;5.93;;
64816;SDS011;69411;45.656;11.740;2023-07-09T14:23:39;9.75;;;5.90;;
64816;SDS011;69411;45.656;11.740;2023-07-09T14:26:07;7.18;;;5.25;;
64816;SDS011;69411;45.656;11.740;2023-07-09T14:28:34;8.07;;;5.72;;
64816;SDS011;69411;45.656;11.740;2023-07-09T14:31:04;7.95;;;5.00;;
64816;SDS011;69411;45.656;11.740;2023-07-09T14:33:37;8.55;;;5.38;;
64816;SDS011;69411;45.656;11.740;2023-07-09T14:36:03;8.23;;;5.57;;
64816;SDS011;69411;45.656;11.740;2023-07-09T14:38:31;9.88;;;5.50;;
64816;SDS011;69411;45.656;11.740;2023-07-09T14:40:58;8.63;;;5.90;;
64816;SDS011;69411;45.656;11.740;2023-07-09T14:43:29;12.85;;;5.40;;
64816;SDS011;69411;45.656;11.740;2023-07-09T14:45:55;8.20;;;5.90;;
64816;SDS011;69411;45.656;11.740;2023-07-09T14:48:22;10.15;;;5.90;;
64816;SDS011;69411;45.656;11.740;2023-07-09T14:50:50;10.05;;;5.82;;
64816;SDS011;69411;45.656;11.740;2023-07-09T14:53:21;9.70;;;5.93;;
64816;SDS011;69411;45.656;11.740;2023-07-09T14:55:52;8.68;;;5.57;;
64816;SDS011;69411;45.656;11.740;2023-07-09T14:58:21;8.38;;;5.50;;
64816;SDS011;69411;45.656;11.740;2023-07-09T15:00:49;8.32;;;5.50;;
64816;SDS011;69411;45.656;11.740;2023-07-09T15:05:47;10.77;;;6.07;;
64816;SDS011;69411;45.656;11.740;2023-07-09T15:08:18;7.85;;;5.40;;
64816;SDS011;69411;45.656;11.740;2023-07-09T15:10:50;8.18;;;5.43;;
64816;SDS011;69411;45.656;11.740;2023-07-09T15:13:31;7.63;;;5.25;;
64816;SDS011;69411;45.656;11.740;2023-07-09T15:15:59;8.52;;;5.35;;
64816;SDS011;69411;45.656;11.740;2023-07-09T15:18:26;8.40;;;5.63;;
64816;SDS011;69411;45.656;11.740;2023-07-09T15:20:54;7.50;;;4.90;;
64816;SDS011;69411;45.656;11.740;2023-07-09T15:23:23;8.20;;;5.35;;
64816;SDS011;69411;45.656;11.740;2023-07-09T15:25:50;8.43;;;5.43;;
64816;SDS011;69411;45.656;11.740;2023-07-09T15:28:17;8.82;;;5.72;;